KWRI/WRI METAR and TAF weather

Enter ICAO airport designator
Station Type Date Time Source
KWRI METAR 2021/04/13 22:56 UTC NOAA

KWRI 132256Z AUTO 00000KT 10SM CLR 17/03 A3002 RMK AO2 SLP166 T01670034


Station Type Date Time Source
KWRI Decoded METAR 2021/04/13 22:56 UTC NOAA

Mcguire Air Force Base, NJ, United States (KWRI) 40-01N 074-36W
Apr 13, 2021 - 06:56 PM EDT / 2021.04.13 2256 UTC
Wind: Calm:0
Visibility: 10 mile(s):0
Sky conditions: clear
Temperature: 62.1 F (16.7 C)
Dew Point: 38.1 F (3.4 C)
Relative Humidity: 41%
Pressure (altimeter): 30.02 in. Hg (1016 hPa)
ob: KWRI 132256Z AUTO 00000KT 10SM CLR 17/03 A3002 RMK AO2 SLP166 T01670034
cycle: 23

Station Type Date Time Source
KWRI TAF 2021/04/13 18:09 UTC NOAA

TAF KWRI 131800Z 1318/1424 02005KT 9999 SCT030 QNH3003INS
BECMG 1322/1323 22005KT 9999 SCT025 QNH3006INS
TEMPO 1409/1412 9000 BR SCT009 BKN020
BECMG 1414/1415 25009KT 9999 BKN040 QNH2996INS
BECMG 1420/1421 24007KT 8000 -SHRA SCT015 BKN025 QNH2994INS TX19/1418Z TN07/1410Z

Example: see airport list